Time;durP1;ratioP1;P1;durP2;ratioP2;P2;SDS_P1;SDS_P2;PMS_P1;PMS_P2;Temp;Humidity;BMP_temperature;BMP_pressure;BME280_temperature;BME280_humidity;BME280_pressure;Samples;Min_cycle;Max_cycle;Signal;HPM_P1;HPM_P2
2022/06/05 00:02:41;;;;;;;9.33;8.00;;;25.80;53.20;;;;;;5025601;28;20191;-87
2022/06/05 00:05:15;;;;;;;9.13;8.23;;;25.80;53.20;;;;;;5022797;28;20515;-87
2022/06/05 00:08:23;;;;;;;9.17;8.17;;;25.70;53.10;;;;;;5025347;28;20439;-88
2022/06/05 00:10:58;;;;;;;9.30;8.40;;;25.70;53.10;;;;;;5011285;28;20419;-87
2022/06/05 00:13:37;;;;;;;8.13;7.43;;;25.70;53.10;;;;;;5031706;28;20423;-87
2022/06/05 00:16:04;;;;;;;9.50;8.60;;;25.70;53.10;;;;;;5016933;28;20431;-87
2022/06/05 00:18:35;;;;;;;8.57;7.80;;;25.70;53.10;;;;;;5015327;28;20454;-87
2022/06/05 00:21:02;;;;;;;9.40;8.53;;;25.70;53.20;;;;;;5019013;28;20428;-88
2022/06/05 00:23:28;;;;;;;9.33;8.53;;;25.70;53.10;;;;;;5046474;28;20416;-87
2022/06/05 00:26:10;;;;;;;8.53;7.73;;;25.70;53.10;;;;;;5015651;28;20439;-87
2022/06/05 00:28:57;;;;;;;8.47;7.67;;;25.70;53.10;;;;;;5038015;28;20568;-87
2022/06/05 00:32:05;;;;;;;7.77;7.07;;;25.80;53.20;;;;;;5031464;28;20431;-86
2022/06/05 00:34:30;;;;;;;9.17;8.27;;;25.70;53.70;;;;;;5012414;28;20458;-87
2022/06/05 00:37:23;;;;;;;8.37;7.67;;;25.70;53.20;;;;;;5046532;28;20420;-86
2022/06/05 00:39:52;;;;;;;9.57;8.20;;;25.70;53.20;;;;;;5013733;28;20200;-87
2022/06/05 00:42:21;;;;;;;8.67;7.97;;;25.70;53.20;;;;;;5014837;28;20424;-86
2022/06/05 00:44:56;;;;;;;9.00;8.10;;;25.70;53.20;;;;;;5050705;28;20431;-87
2022/06/05 00:47:29;;;;;;;8.70;7.80;;;25.60;53.10;;;;;;5052199;28;20828;-87
2022/06/05 00:50:14;;;;;;;8.37;7.60;;;25.70;53.20;;;;;;5012682;28;20418;-86
2022/06/05 00:52:45;;;;;;;9.97;9.00;;;25.70;53.20;;;;;;5013136;28;20412;-87
2022/06/05 00:55:12;;;;;;;8.10;7.40;;;25.70;53.20;;;;;;5013597;28;20426;-86
2022/06/05 00:57:39;;;;;;;9.67;8.67;;;25.70;53.20;;;;;;5016738;28;20426;-87
2022/06/05 01:00:15;;;;;;;9.00;8.20;;;25.60;53.10;;;;;;5013818;28;20432;-88
2022/06/05 01:02:44;;;;;;;8.30;7.60;;;25.70;53.20;;;;;;5028946;28;20507;-88
2022/06/05 01:05:14;;;;;;;8.80;8.00;;;25.70;53.20;;;;;;5029138;28;20415;-86
2022/06/05 01:07:39;;;;;;;8.40;7.70;;;25.70;53.20;;;;;;5028524;28;20518;-88
2022/06/05 01:10:07;;;;;;;8.03;7.23;;;25.70;53.10;;;;;;5043524;28;20407;-88
2022/06/05 01:16:06;;;;;;;7.80;7.20;;;25.70;53.20;;;;;;5031410;28;20433;-88
2022/06/05 01:18:38;;;;;;;8.40;7.60;;;25.70;53.20;;;;;;5046694;28;20428;-88
2022/06/05 01:21:10;;;;;;;8.47;7.67;;;25.60;53.10;;;;;;5029941;28;20496;-88
2022/06/05 01:23:57;;;;;;;8.37;7.67;;;25.60;53.10;;;;;;5030202;28;20937;-88
2022/06/05 01:26:34;;;;;;;7.97;7.27;;;25.70;53.20;;;;;;5047817;28;20434;-88
2022/06/05 01:29:08;;;;;;;8.00;7.20;;;25.70;53.20;;;;;;5030700;28;20813;-88
2022/06/05 01:31:39;;;;;;;7.87;7.10;;;25.70;53.80;;;;;;5023781;28;20424;-88
2022/06/05 01:34:47;;;;;;;8.60;6.97;;;25.60;53.10;;;;;;5028538;28;20426;-88
2022/06/05 01:37:17;;;;;;;7.30;6.70;;;25.70;53.20;;;;;;5020707;28;20419;-88
2022/06/05 01:39:51;;;;;;;8.33;7.63;;;25.70;53.20;;;;;;5043288;28;20539;-87
2022/06/05 01:42:26;;;;;;;8.07;7.37;;;25.60;53.10;;;;;;5028958;28;20762;-87
2022/06/05 01:44:57;;;;;;;7.83;7.10;;;25.70;53.20;;;;;;5027489;28;20415;-87
2022/06/05 01:47:34;;;;;;;7.97;7.27;;;25.60;53.10;;;;;;5028156;28;20453;-87
2022/06/05 01:50:27;;;;;;;7.70;7.10;;;25.70;53.20;;;;;;5027346;28;20518;-87
2022/06/05 01:53:24;;;;;;;7.17;6.57;;;25.70;53.20;;;;;;5023885;28;20427;-88
2022/06/05 01:56:04;;;;;;;7.33;6.73;;;25.70;53.20;;;;;;5024115;28;20431;-87
2022/06/05 01:58:46;;;;;;;7.57;6.87;;;25.60;53.10;;;;;;5059903;28;20518;-87
2022/06/05 02:01:19;;;;;;;7.10;6.50;;;25.60;53.10;;;;;;5024534;28;20411;-87
2022/06/05 02:03:53;;;;;;;6.73;6.20;;;25.60;53.20;;;;;;5029205;28;20486;-87
2022/06/05 02:06:29;;;;;;;7.03;6.37;;;25.60;53.10;;;;;;5024107;28;20756;-87
2022/06/05 02:09:03;;;;;;;7.60;6.83;;;25.60;53.10;;;;;;5027776;28;20446;-87
2022/06/05 02:11:32;;;;;;;6.80;6.20;;;25.60;53.10;;;;;;5027135;28;20442;-87
2022/06/05 02:14:08;;;;;;;7.40;6.80;;;25.60;53.10;;;;;;5028005;28;20427;-87
2022/06/05 02:16:36;;;;;;;8.23;7.47;;;25.60;53.10;;;;;;5021996;28;20434;-87
2022/06/05 02:19:07;;;;;;;6.77;5.97;;;25.60;53.10;;;;;;5026570;28;20826;-86
2022/06/05 02:21:33;;;;;;;7.97;7.17;;;25.60;53.10;;;;;;5026833;28;20502;-86
2022/06/05 02:23:59;;;;;;;7.07;6.37;;;25.60;53.10;;;;;;5027282;28;20440;-88
2022/06/05 02:26:27;;;;;;;7.43;6.73;;;25.60;53.70;;;;;;5021698;28;20445;-87
2022/06/05 02:28:53;;;;;;;7.50;6.90;;;25.60;53.10;;;;;;5028531;28;20415;-87
2022/06/05 02:31:38;;;;;;;7.70;6.80;;;25.60;53.10;;;;;;5023978;28;20443;-87
2022/06/05 02:34:06;;;;;;;7.43;6.83;;;25.70;53.10;;;;;;5028266;28;20418;-88
2022/06/05 02:36:44;;;;;;;7.33;6.63;;;25.60;53.10;;;;;;5027435;28;20462;-87
2022/06/05 02:39:28;;;;;;;7.33;6.73;;;25.60;53.10;;;;;;5058128;28;20478;-88
2022/06/05 02:42:06;;;;;;;6.40;5.80;;;25.60;53.10;;;;;;5020683;28;20423;-87
2022/06/05 02:45:14;;;;;;;6.47;5.87;;;25.60;53.10;;;;;;5042302;28;20424;-88
2022/06/05 02:48:01;;;;;;;6.50;6.00;;;25.60;53.20;;;;;;5005478;28;20836;-87
2022/06/05 02:50:36;;;;;;;6.10;5.60;;;25.60;53.20;;;;;;5023487;28;20416;-87
2022/06/05 02:53:09;;;;;;;6.90;6.30;;;25.60;53.10;;;;;;5033321;28;20426;-86
2022/06/05 02:55:35;;;;;;;7.07;6.47;;;25.60;53.20;;;;;;5052592;28;20893;-86
2022/06/05 02:58:01;;;;;;;6.50;5.90;;;25.60;53.20;;;;;;5056014;28;20498;-86
2022/06/05 03:00:30;;;;;;;7.23;6.63;;;25.60;53.10;;;;;;5026496;28;20430;-86
2022/06/05 03:05:42;;;;;;;7.87;5.87;;;25.60;53.20;;;;;;5015851;28;20415;-87
2022/06/05 03:08:10;;;;;;;6.50;5.90;;;25.60;53.20;;;;;;5025093;28;20415;-87
2022/06/05 03:10:36;;;;;;;6.83;6.13;;;25.60;53.10;;;;;;5021528;28;20479;-87
2022/06/05 03:13:02;;;;;;;6.80;6.20;;;25.60;53.20;;;;;;5026328;28;20419;-87
2022/06/05 03:15:29;;;;;;;7.23;6.53;;;25.60;53.10;;;;;;5029075;28;20419;-87
2022/06/05 03:17:55;;;;;;;6.40;5.80;;;25.60;53.10;;;;;;5029378;28;20430;-87
2022/06/05 03:20:21;;;;;;;6.63;6.13;;;25.60;53.10;;;;;;5012578;28;20442;-87
2022/06/05 03:22:47;;;;;;;6.63;6.00;;;25.60;53.10;;;;;;5030025;28;20435;-87
2022/06/05 03:25:20;;;;;;;6.40;5.90;;;25.60;53.10;;;;;;5028778;28;20404;-87
2022/06/05 03:27:46;;;;;;;6.57;5.97;;;25.60;53.10;;;;;;5029010;28;20416;-87
2022/06/05 03:30:13;;;;;;;6.90;6.30;;;25.60;53.10;;;;;;5029148;28;20419;-87
2022/06/05 03:32:40;;;;;;;6.30;5.70;;;25.60;53.10;;;;;;5012943;28;20427;-87
2022/06/05 03:35:06;;;;;;;6.53;5.97;;;25.60;53.10;;;;;;5013384;28;20847;-87
2022/06/05 03:37:32;;;;;;;6.50;5.97;;;25.60;53.10;;;;;;5029088;28;20416;-87
2022/06/05 03:39:58;;;;;;;6.50;5.90;;;25.60;53.10;;;;;;5029908;28;20451;-87
2022/06/05 03:42:24;;;;;;;6.33;5.80;;;25.60;53.10;;;;;;5030530;28;20404;-87
2022/06/05 03:44:50;;;;;;;6.40;5.80;;;25.60;53.10;;;;;;5029524;28;20168;-88
2022/06/05 03:47:16;;;;;;;6.83;6.23;;;25.60;53.10;;;;;;5028608;28;20447;-88
2022/06/05 03:49:42;;;;;;;7.57;6.87;;;25.60;53.10;;;;;;5028336;28;20427;-88
2022/06/05 03:52:10;;;;;;;6.83;6.27;;;25.60;53.10;;;;;;5028954;28;20430;-89
2022/06/05 03:54:38;;;;;;;7.10;6.40;;;25.60;53.20;;;;;;5030346;28;20799;-88
2022/06/05 03:57:05;;;;;;;6.57;5.97;;;25.60;53.10;;;;;;5029178;28;20438;-88
2022/06/05 03:59:33;;;;;;;6.40;5.90;;;25.60;53.10;;;;;;5062052;28;20534;-89
2022/06/05 04:01:58;;;;;;;6.13;5.63;;;25.60;53.10;;;;;;5029190;28;20828;-88
2022/06/05 04:04:24;;;;;;;6.70;6.10;;;25.60;53.10;;;;;;5062139;28;20482;-88
2022/06/05 04:06:50;;;;;;;6.20;5.70;;;25.60;53.10;;;;;;5028976;28;20188;-88
2022/06/05 04:09:16;;;;;;;6.20;5.70;;;25.60;53.10;;;;;;5045168;28;20593;-88
2022/06/05 04:11:42;;;;;;;6.03;5.53;;;25.60;53.10;;;;;;5028594;28;20588;-88
2022/06/05 04:14:08;;;;;;;5.90;5.40;;;25.70;53.20;;;;;;5062633;28;20188;-89
2022/06/05 04:16:36;;;;;;;6.03;5.53;;;25.60;53.10;;;;;;5029410;28;20211;-88
2022/06/05 04:19:03;;;;;;;5.93;5.43;;;25.60;53.10;;;;;;5028488;28;20459;-88
2022/06/05 04:21:33;;;;;;;6.30;5.70;;;25.70;53.20;;;;;;5028580;28;20484;-89
2022/06/05 04:23:59;;;;;;;6.30;5.73;;;25.70;53.10;;;;;;5029072;28;20431;-89
2022/06/05 04:26:28;;;;;;;5.53;5.13;;;25.70;53.10;;;;;;5029357;28;20423;-88
2022/06/05 04:28:54;;;;;;;5.30;4.90;;;25.70;53.10;;;;;;5028775;28;20426;-88
2022/06/05 04:31:32;;;;;;;6.07;5.50;;;25.60;53.10;;;;;;5029518;28;20483;-88
2022/06/05 04:34:02;;;;;;;5.67;5.17;;;25.70;53.10;;;;;;5028899;28;20498;-88
2022/06/05 04:36:28;;;;;;;6.80;6.30;;;25.70;53.20;;;;;;5025131;28;20420;-88
2022/06/05 04:42:16;;;;;;;6.53;5.93;;;25.70;53.10;;;;;;5009490;28;20400;-88
2022/06/05 04:44:43;;;;;;;6.57;6.00;;;25.70;53.20;;;;;;5010027;28;20412;-88
2022/06/05 04:47:08;;;;;;;6.53;6.03;;;25.60;53.10;;;;;;5009709;28;20177;-88
2022/06/05 04:49:35;;;;;;;5.40;4.90;;;25.70;53.20;;;;;;5008627;28;20499;-88
2022/06/05 04:52:01;;;;;;;5.83;5.33;;;25.70;53.10;;;;;;5009213;28;20229;-88
2022/06/05 04:54:27;;;;;;;5.43;5.03;;;25.70;53.20;;;;;;5008796;28;20420;-88
2022/06/05 04:56:53;;;;;;;6.33;5.83;;;25.70;53.10;;;;;;5008656;28;20478;-88
2022/06/05 04:59:19;;;;;;;5.80;5.30;;;25.70;53.10;;;;;;5010662;28;20204;-88
2022/06/05 05:01:46;;;;;;;6.27;5.77;;;25.70;53.10;;;;;;5009666;28;20165;-88
2022/06/05 05:04:14;;;;;;;5.73;5.13;;;25.70;53.10;;;;;;5009541;28;20165;-88
2022/06/05 05:06:41;;;;;;;6.40;5.80;;;25.80;53.10;;;;;;5020153;28;20426;-87
2022/06/05 05:09:08;;;;;;;5.70;5.20;;;25.70;53.10;;;;;;5052100;28;20478;-87
2022/06/05 05:11:35;;;;;;;6.10;5.60;;;25.70;53.10;;;;;;5030941;28;20419;-88
2022/06/05 05:14:01;;;;;;;5.80;5.30;;;25.70;53.10;;;;;;5032447;28;20399;-87
2022/06/05 05:16:29;;;;;;;4.87;4.47;;;25.70;53.10;;;;;;5031420;28;20411;-88
2022/06/05 05:18:55;;;;;;;6.30;5.70;;;25.70;53.10;;;;;;5031575;28;20480;-88
2022/06/05 05:21:23;;;;;;;5.60;5.10;;;25.70;53.10;;;;;;5036149;28;20520;-87
2022/06/05 05:23:50;;;;;;;5.60;5.10;;;25.70;53.10;;;;;;5019789;28;20426;-87
2022/06/05 05:26:30;;;;;;;5.53;5.07;;;25.80;53.10;;;;;;5031862;28;20476;-87
2022/06/05 05:28:58;;;;;;;5.57;5.10;;;25.80;53.10;;;;;;5031627;28;20458;-87
2022/06/05 05:31:45;;;;;;;5.53;5.13;;;25.70;53.10;;;;;;5032650;28;20479;-87
2022/06/05 05:34:13;;;;;;;6.33;5.83;;;25.80;53.10;;;;;;5029279;28;20561;-87
2022/06/05 05:36:40;;;;;;;6.00;5.50;;;25.80;53.10;;;;;;5029765;28;20439;-87
2022/06/05 05:42:05;;;;;;;5.00;4.60;;;25.80;53.20;;;;;;5028830;28;20410;-88
2022/06/05 05:44:48;;;;;;;6.20;5.60;;;25.80;53.10;;;;;;5009116;28;20443;-88
2022/06/05 05:47:20;;;;;;;5.63;5.17;;;25.80;53.10;;;;;;5025341;28;20804;-88
2022/06/05 05:49:49;;;;;;;5.10;4.70;;;25.80;53.10;;;;;;5025228;28;20404;-88
2022/06/05 05:52:15;;;;;;;5.17;4.73;;;25.80;53.20;;;;;;5008196;28;20483;-88
2022/06/05 05:54:41;;;;;;;7.90;5.07;;;25.80;53.10;;;;;;5010017;28;20439;-88
2022/06/05 05:57:08;;;;;;;5.90;5.40;;;25.80;53.70;;;;;;5008577;28;20173;-88
2022/06/05 05:59:35;;;;;;;5.53;5.13;;;25.80;53.10;;;;;;5025009;28;20224;-88
2022/06/05 06:02:01;;;;;;;5.83;5.37;;;25.80;53.10;;;;;;5025088;28;20488;-88
2022/06/05 06:04:30;;;;;;;5.70;5.10;;;25.80;53.10;;;;;;5024661;28;20413;-88
2022/06/05 06:06:55;;;;;;;5.30;4.80;;;25.80;53.30;;;;;;5025470;28;20416;-88
2022/06/05 06:09:21;;;;;;;5.77;5.20;;;25.80;53.10;;;;;;5008673;28;20416;-87
2022/06/05 06:11:47;;;;;;;5.40;4.90;;;25.80;53.10;;;;;;5009898;28;20169;-88
2022/06/05 06:14:13;;;;;;;6.37;5.87;;;25.80;53.10;;;;;;5026887;28;20272;-88
2022/06/05 06:16:39;;;;;;;4.80;4.50;;;25.80;53.10;;;;;;5027792;28;20426;-88
2022/06/05 06:19:05;;;;;;;5.40;4.90;;;25.80;53.10;;;;;;5027776;28;20196;-88
2022/06/05 06:21:31;;;;;;;4.90;4.50;;;25.80;53.10;;;;;;5027374;28;20418;-88
2022/06/05 06:23:57;;;;;;;5.27;4.83;;;25.80;53.10;;;;;;5028613;28;20228;-88
2022/06/05 06:26:23;;;;;;;7.47;6.70;;;25.80;53.10;;;;;;5028900;28;20176;-88
2022/06/05 06:28:49;;;;;;;5.00;4.60;;;25.80;53.10;;;;;;5027880;28;20782;-88
2022/06/05 06:31:16;;;;;;;4.67;4.27;;;25.80;53.10;;;;;;5028650;28;20227;-88
2022/06/05 06:33:44;;;;;;;5.10;4.60;;;25.80;53.10;;;;;;5029338;28;20415;-87
2022/06/05 06:36:11;;;;;;;5.27;4.83;;;25.80;53.10;;;;;;5028388;28;20419;-87
2022/06/05 06:38:38;;;;;;;5.63;5.13;;;25.80;53.10;;;;;;5028521;28;20459;-87
2022/06/05 06:41:12;;;;;;;4.60;4.20;;;25.80;53.10;;;;;;5027278;28;20458;-86
2022/06/05 06:43:39;;;;;;;4.80;4.40;;;25.80;53.10;;;;;;5008364;28;20442;-87
2022/06/05 06:46:05;;;;;;;4.93;4.53;;;25.80;53.10;;;;;;5008764;28;20510;-86
2022/06/05 06:48:31;;;;;;;5.00;4.60;;;25.80;53.10;;;;;;5008083;28;20416;-87
2022/06/05 06:50:58;;;;;;;5.63;5.13;;;25.80;53.10;;;;;;5009497;28;20263;-86
2022/06/05 06:53:25;;;;;;;5.80;5.30;;;25.80;53.10;;;;;;5008973;28;20774;-86
2022/06/05 06:55:51;;;;;;;4.83;4.53;;;25.80;53.10;;;;;;5008831;28;20431;-87
2022/06/05 06:58:18;;;;;;;4.97;4.57;;;25.80;53.00;;;;;;5009535;28;20463;-86
2022/06/05 07:00:44;;;;;;;4.90;4.50;;;25.80;53.10;;;;;;5008300;28;20420;-87
2022/06/05 07:03:10;;;;;;;5.10;4.60;;;25.80;53.00;;;;;;5009013;28;20424;-86
2022/06/05 07:05:36;;;;;;;4.80;4.40;;;25.80;53.10;;;;;;5008516;28;20762;-86
2022/06/05 07:08:02;;;;;;;4.90;4.50;;;25.80;53.10;;;;;;5007854;28;20423;-87
2022/06/05 07:10:28;;;;;;;5.37;4.87;;;25.80;53.00;;;;;;5009539;28;20412;-87
2022/06/05 07:12:55;;;;;;;4.57;4.17;;;25.80;53.10;;;;;;5008177;28;20880;-87
2022/06/05 07:15:21;;;;;;;4.97;4.57;;;25.80;53.00;;;;;;5008624;28;20440;-87
2022/06/05 07:17:47;;;;;;;5.00;4.60;;;25.80;53.10;;;;;;5008980;28;20420;-87
2022/06/05 07:20:13;;;;;;;4.97;4.47;;;25.80;53.10;;;;;;5007719;28;20431;-87
2022/06/05 07:22:39;;;;;;;4.90;4.50;;;25.80;53.10;;;;;;5007407;28;20427;-87
2022/06/05 07:25:06;;;;;;;4.73;4.33;;;25.80;53.10;;;;;;5019900;28;20430;-87
2022/06/05 07:27:32;;;;;;;4.87;4.47;;;25.80;53.10;;;;;;5030357;28;20435;-87
2022/06/05 07:29:58;;;;;;;4.90;4.50;;;25.80;53.10;;;;;;5029304;28;20438;-87
2022/06/05 07:32:24;;;;;;;4.83;4.50;;;25.80;53.10;;;;;;5023728;28;20424;-87
2022/06/05 07:34:50;;;;;;;5.50;5.00;;;25.80;53.10;;;;;;5055048;28;20792;-87
2022/06/05 07:37:16;;;;;;;4.20;3.90;;;25.80;53.10;;;;;;5028087;28;20423;-87
2022/06/05 07:39:43;;;;;;;5.00;4.60;;;25.80;53.10;;;;;;5019762;28;20455;-87
2022/06/05 07:42:11;;;;;;;4.17;3.87;;;25.80;53.10;;;;;;5024991;28;20419;-87
2022/06/05 07:44:37;;;;;;;4.90;4.50;;;25.80;53.10;;;;;;5027545;28;20399;-87
2022/06/05 07:47:08;;;;;;;4.93;4.53;;;25.80;53.10;;;;;;5026789;28;20773;-87
2022/06/05 07:49:38;;;;;;;5.27;4.87;;;25.80;53.10;;;;;;5027909;28;20446;-87
2022/06/05 07:54:50;;;;;;;5.00;4.60;;;25.80;53.10;;;;;;5027932;28;20442;-87
2022/06/05 07:57:20;;;;;;;5.30;4.80;;;25.80;53.10;;;;;;5043920;28;20416;-90
2022/06/05 07:59:49;;;;;;;4.77;4.37;;;25.80;53.10;;;;;;5010813;28;20483;-88
2022/06/05 08:02:26;;;;;;;4.77;4.37;;;25.80;53.10;;;;;;5028146;28;20419;-88
2022/06/05 08:04:54;;;;;;;4.70;4.30;;;25.80;53.10;;;;;;5027692;28;20925;-88
2022/06/05 08:07:22;;;;;;;4.80;4.40;;;25.80;53.10;;;;;;5027301;28;20451;-86
2022/06/05 08:09:49;;;;;;;5.07;4.77;;;25.80;53.10;;;;;;5027194;28;20419;-88
2022/06/05 08:12:17;;;;;;;5.13;4.67;;;25.80;53.10;;;;;;5027804;28;20419;-88
2022/06/05 08:14:44;;;;;;;4.83;4.43;;;25.80;53.10;;;;;;5027053;28;20539;-88
2022/06/05 08:17:14;;;;;;;4.97;4.47;;;25.80;53.10;;;;;;5026920;28;20423;-88
2022/06/05 08:19:41;;;;;;;5.10;4.70;;;25.80;53.10;;;;;;5026994;28;20486;-88
2022/06/05 08:22:09;;;;;;;6.30;5.00;;;25.80;53.10;;;;;;5027496;28;20518;-88
2022/06/05 08:24:36;;;;;;;4.80;4.30;;;25.80;53.20;;;;;;5027480;28;20483;-88
2022/06/05 08:27:02;;;;;;;5.43;5.00;;;25.80;53.10;;;;;;5010345;28;20518;-88
2022/06/05 08:29:28;;;;;;;4.40;4.00;;;25.80;53.10;;;;;;5026964;28;20427;-88
2022/06/05 08:31:56;;;;;;;6.97;4.47;;;25.80;53.10;;;;;;5028567;28;20443;-88
2022/06/05 08:34:23;;;;;;;5.00;4.57;;;25.80;53.10;;;;;;5027335;28;20195;-88
2022/06/05 08:41:26;;;;;;;5.40;4.90;;;25.80;53.10;;;;;;5028216;28;20411;-88
2022/06/05 08:42:45;;;;;;;6.50;4.90;;;25.80;53.20;;;;;;5028111;28;20430;-88
2022/06/05 08:45:22;;;;;;;5.23;4.47;;;25.80;53.20;;;;;;5022832;28;20801;-88
2022/06/05 08:48:05;;;;;;;7.57;5.10;;;25.80;53.20;;;;;;5030729;28;20421;-87
2022/06/05 08:50:46;;;;;;;4.67;4.10;;;25.80;53.20;;;;;;5031512;28;20478;-88
2022/06/05 08:53:21;;;;;;;4.53;4.13;;;25.80;53.20;;;;;;5028233;28;20449;-88
2022/06/05 08:55:48;;;;;;;4.30;4.00;;;25.80;53.20;;;;;;5032156;28;20396;-88
2022/06/05 08:58:37;;;;;;;5.57;5.13;;;25.80;53.20;;;;;;5028330;28;20866;-86
2022/06/05 09:01:09;;;;;;;4.33;4.03;;;25.80;53.20;;;;;;5027942;28;20404;-86
2022/06/05 09:03:50;;;;;;;4.80;4.40;;;25.80;53.20;;;;;;5027192;28;20435;-86
2022/06/05 09:06:39;;;;;;;4.40;4.00;;;25.80;53.30;;;;;;5027059;28;20459;-86
2022/06/05 09:09:20;;;;;;;5.70;4.57;;;25.80;53.20;;;;;;5046838;28;20409;-88
2022/06/05 09:11:58;;;;;;;5.10;4.70;;;25.80;53.30;;;;;;5032551;28;20418;-88
2022/06/05 09:14:30;;;;;;;6.13;4.17;;;25.80;53.20;;;;;;5033015;28;20439;-88
2022/06/05 09:17:12;;;;;;;4.43;4.13;;;25.80;53.30;;;;;;5049222;28;20415;-88
2022/06/05 09:19:40;;;;;;;4.57;4.17;;;25.80;53.20;;;;;;5032653;28;20462;-88
2022/06/05 09:22:15;;;;;;;4.60;4.20;;;25.80;53.30;;;;;;5033353;28;20458;-88
2022/06/05 09:25:02;;;;;;;5.57;4.57;;;25.80;53.20;;;;;;5049146;28;20417;-88
2022/06/05 09:27:34;;;;;;;5.20;4.80;;;25.80;53.30;;;;;;5048375;28;20427;-88
2022/06/05 09:30:32;;;;;;;4.77;4.27;;;25.80;53.20;;;;;;5031384;28;20406;-86
2022/06/05 09:33:16;;;;;;;5.10;4.70;;;25.80;53.20;;;;;;5030142;28;20423;-86
2022/06/05 09:36:09;;;;;;;4.87;4.47;;;25.80;53.20;;;;;;5030863;28;20416;-86
2022/06/05 09:38:41;;;;;;;4.60;4.20;;;25.80;53.30;;;;;;5028679;28;20455;-86
2022/06/05 09:41:16;;;;;;;5.47;3.97;;;25.80;53.30;;;;;;5047138;28;20427;-86
2022/06/05 09:44:10;;;;;;;5.17;4.73;;;25.80;53.30;;;;;;5030133;28;20441;-86
2022/06/05 09:46:58;;;;;;;5.20;4.70;;;25.80;53.30;;;;;;5045780;28;20430;-86
2022/06/05 09:49:44;;;;;;;5.13;4.67;;;25.80;53.20;;;;;;5031426;28;20416;-88
2022/06/05 09:52:24;;;;;;;4.60;4.20;;;25.80;53.20;;;;;;5032369;28;20430;-88
2022/06/05 09:55:22;;;;;;;7.07;5.17;;;25.80;53.30;;;;;;5031478;28;20442;-88
2022/06/05 10:00:58;;;;;;;4.93;4.40;;;25.80;53.30;;;;;;5031562;28;20821;-88
2022/06/05 10:03:55;;;;;;;6.07;4.37;;;25.80;53.30;;;;;;5047825;28;20431;-88
2022/06/05 10:06:46;;;;;;;6.30;4.30;;;25.80;53.30;;;;;;5031582;28;20420;-88
2022/06/05 10:09:40;;;;;;;5.30;4.80;;;25.80;53.30;;;;;;5031388;28;20419;-88
2022/06/05 10:12:20;;;;;;;5.27;4.37;;;25.80;53.30;;;;;;5011139;28;20427;-88
2022/06/05 10:15:00;;;;;;;5.27;4.77;;;25.80;53.30;;;;;;5010939;28;20427;-88
2022/06/05 10:17:31;;;;;;;5.13;4.63;;;25.80;53.30;;;;;;4993648;28;20450;-88
2022/06/05 10:20:16;;;;;;;5.63;5.13;;;25.80;53.30;;;;;;5011631;28;20479;-88
2022/06/05 10:23:05;;;;;;;5.10;4.60;;;25.80;53.80;;;;;;4994570;28;20421;-87
2022/06/05 10:25:42;;;;;;;5.50;4.57;;;25.80;53.30;;;;;;5010033;28;20430;-87
2022/06/05 10:28:22;;;;;;;4.50;4.10;;;25.80;53.30;;;;;;4993709;28;20408;-88
2022/06/05 10:31:13;;;;;;;5.10;4.60;;;25.80;53.30;;;;;;5010339;28;20438;-88
2022/06/05 10:33:44;;;;;;;6.90;4.67;;;25.80;53.30;;;;;;4994226;28;20407;-88
2022/06/05 10:36:20;;;;;;;5.27;4.53;;;25.80;53.30;;;;;;4993892;28;20448;-88
2022/06/05 10:38:55;;;;;;;5.70;5.13;;;25.80;53.30;;;;;;4994034;28;20461;-88
2022/06/05 10:41:36;;;;;;;6.33;5.20;;;25.80;53.30;;;;;;4992623;28;20416;-88
2022/06/05 10:44:43;;;;;;;6.20;5.20;;;25.80;53.30;;;;;;4977512;28;20444;-88
2022/06/05 10:47:17;;;;;;;5.40;4.90;;;25.80;53.30;;;;;;5009218;28;20424;-88
2022/06/05 10:50:04;;;;;;;8.83;6.43;;;25.80;53.40;;;;;;5006558;28;20421;-88
2022/06/05 10:53:04;;;;;;;7.97;4.77;;;25.80;53.40;;;;;;5010060;28;20420;-88
2022/06/05 10:56:13;;;;;;;6.50;5.13;;;25.80;53.40;;;;;;5044465;28;20435;-88
2022/06/05 10:59:05;;;;;;;7.60;5.37;;;25.80;53.40;;;;;;4993165;28;20459;-88
2022/06/05 11:02:13;;;;;;;5.53;5.03;;;25.80;53.50;;;;;;5009625;28;20420;-88
2022/06/05 11:05:06;;;;;;;6.50;5.63;;;25.80;53.50;;;;;;4992515;28;20435;-87
2022/06/05 11:07:55;;;;;;;5.83;4.50;;;25.80;53.50;;;;;;4976977;28;20416;-87
2022/06/05 11:14:03;;;;;;;6.77;4.90;;;25.80;53.50;;;;;;5008626;28;20442;-87
2022/06/05 11:16:43;;;;;;;6.10;5.23;;;25.80;53.50;;;;;;4993403;28;20420;-87
2022/06/05 11:19:31;;;;;;;5.60;4.90;;;25.80;53.50;;;;;;4993138;28;20487;-87
2022/06/05 11:22:02;;;;;;;6.83;5.43;;;25.80;53.50;;;;;;5016006;28;20427;-86
2022/06/05 11:24:46;;;;;;;6.67;4.97;;;25.80;53.50;;;;;;5027279;28;20395;-86
2022/06/05 11:27:50;;;;;;;6.77;5.13;;;25.80;53.40;;;;;;5027602;28;20392;-86
2022/06/05 11:30:49;;;;;;;4.53;4.10;;;25.80;53.50;;;;;;5025436;28;20442;-86
2022/06/05 11:33:25;;;;;;;6.90;4.97;;;25.80;53.50;;;;;;5020711;28;20415;-85
2022/06/05 11:36:28;;;;;;;7.70;5.40;;;25.80;53.40;;;;;;5029138;28;20411;-88
2022/06/05 11:39:12;;;;;;;4.97;4.10;;;25.80;53.40;;;;;;5027850;28;20485;-91
2022/06/05 11:42:15;;;;;;;5.57;4.60;;;25.80;53.40;;;;;;5062987;28;20423;-88
2022/06/05 11:45:04;;;;;;;6.50;5.10;;;25.80;53.40;;;;;;5001833;28;20424;-88
2022/06/05 11:47:43;;;;;;;5.77;5.03;;;25.80;53.50;;;;;;5021695;28;20454;-87
2022/06/05 11:50:16;;;;;;;5.80;4.43;;;25.80;53.40;;;;;;5028467;28;20510;-87
2022/06/05 11:53:17;;;;;;;5.87;5.37;;;25.80;53.40;;;;;;5028285;28;20415;-88
2022/06/05 11:55:56;;;;;;;5.43;4.93;;;25.80;53.40;;;;;;5008163;28;20439;-87
2022/06/05 11:58:54;;;;;;;5.50;4.40;;;25.80;53.40;;;;;;4995377;28;20455;-87
2022/06/05 12:01:29;;;;;;;6.17;4.57;;;25.90;53.40;;;;;;5008569;28;20910;-87
2022/06/05 12:04:20;;;;;;;6.77;4.67;;;25.80;53.40;;;;;;5006952;28;20400;-88
2022/06/05 12:06:56;;;;;;;5.53;4.93;;;25.80;53.40;;;;;;4991749;28;20512;-87
2022/06/05 12:09:39;;;;;;;5.13;4.63;;;25.80;53.40;;;;;;5007417;28;20412;-88
2022/06/05 12:12:36;;;;;;;5.00;3.90;;;25.80;53.40;;;;;;4971608;28;20405;-86
2022/06/05 12:15:17;;;;;;;5.30;4.77;;;25.90;53.40;;;;;;4975766;28;20429;-87
2022/06/05 12:17:56;;;;;;;6.37;4.33;;;25.80;53.40;;;;;;5007094;28;20428;-89
2022/06/05 12:20:35;;;;;;;4.60;4.03;;;25.90;53.40;;;;;;5009150;28;20455;-90
2022/06/05 12:23:28;;;;;;;5.80;4.33;;;25.80;53.40;;;;;;4992508;28;20416;-89
2022/06/05 12:25:58;;;;;;;6.63;5.77;;;25.90;53.40;;;;;;4987919;28;20451;-89
2022/06/05 12:28:40;;;;;;;6.43;4.40;;;25.80;53.40;;;;;;4991862;28;20477;-88
2022/06/05 12:31:26;;;;;;;6.23;4.73;;;25.90;53.40;;;;;;4991610;28;20408;-91
2022/06/05 12:34:10;;;;;;;4.90;4.40;;;25.90;53.40;;;;;;5024860;28;20411;-90
2022/06/05 12:36:44;;;;;;;5.20;4.23;;;25.90;53.40;;;;;;5044838;28;20451;-90
2022/06/05 12:39:22;;;;;;;5.63;4.70;;;25.90;53.40;;;;;;5028029;28;20485;-90
2022/06/05 12:41:51;;;;;;;5.00;4.50;;;25.90;53.40;;;;;;5028668;28;20422;-91
2022/06/05 12:44:33;;;;;;;6.33;4.10;;;25.90;53.40;;;;;;4889025;28;3617510;-90
2022/06/05 12:47:17;;;;;;;4.60;3.87;;;25.90;53.50;;;;;;5030975;28;20629;-90
2022/06/05 12:49:57;;;;;;;4.33;3.93;;;25.80;53.40;;;;;;5030563;28;20395;-90
2022/06/05 12:52:28;;;;;;;5.20;4.20;;;25.90;53.40;;;;;;5030083;28;20399;-90
2022/06/05 12:55:01;;;;;;;4.97;4.43;;;25.90;53.40;;;;;;5029390;28;20435;-88
2022/06/05 12:57:48;;;;;;;5.13;4.63;;;25.90;53.40;;;;;;5029010;28;20430;-91
2022/06/05 13:00:37;;;;;;;6.43;4.57;;;25.90;53.40;;;;;;5029019;28;20455;-91
2022/06/05 13:03:24;;;;;;;6.10;4.43;;;25.90;54.00;;;;;;5023451;28;20423;-90
2022/06/05 13:06:34;;;;;;;6.00;5.33;;;25.90;53.50;;;;;;5029207;28;20412;-91
2022/06/05 13:09:14;;;;;;;5.23;4.73;;;25.90;53.50;;;;;;4990578;28;20420;-90
2022/06/05 13:11:48;;;;;;;5.90;5.23;;;25.90;53.50;;;;;;5023170;28;20415;-91
2022/06/05 13:14:48;;;;;;;5.53;5.00;;;25.90;53.50;;;;;;5028967;28;20415;-92
2022/06/05 13:17:45;;;;;;;6.63;5.20;;;25.90;53.50;;;;;;5044486;28;20487;-92
2022/06/05 13:20:32;;;;;;;5.90;4.90;;;25.90;53.50;;;;;;5027417;28;20459;-92
2022/06/05 13:23:23;;;;;;;5.63;5.20;;;25.80;53.50;;;;;;5027734;28;20712;-90
2022/06/05 13:26:16;;;;;;;4.73;4.33;;;25.90;53.50;;;;;;5027082;28;20952;-92
2022/06/05 13:29:30;;;;;;;4.90;4.00;;;25.90;53.50;;;;;;5026780;28;20423;-89
2022/06/05 13:32:12;;;;;;;5.63;4.97;;;25.90;53.50;;;;;;5028520;28;20419;-90
2022/06/05 13:34:50;;;;;;;6.70;5.50;;;25.90;53.50;;;;;;5029605;28;20450;-90
2022/06/05 13:37:28;;;;;;;5.00;4.60;;;25.80;53.50;;;;;;5029645;28;20486;-88
2022/06/05 13:40:33;;;;;;;7.30;4.77;;;25.90;53.60;;;;;;5044659;28;20451;-88
2022/06/05 13:43:01;;;;;;;5.73;5.20;;;25.90;53.60;;;;;;5029941;28;20497;-89
2022/06/05 13:45:33;;;;;;;6.00;4.30;;;25.90;53.60;;;;;;5031353;28;20403;-87
2022/06/05 13:48:07;;;;;;;5.50;4.43;;;25.90;53.60;;;;;;5013507;28;20446;-88
2022/06/05 13:51:07;;;;;;;7.73;4.80;;;25.90;53.60;;;;;;5031835;28;20450;-92
2022/06/05 13:53:44;;;;;;;8.33;4.97;;;25.90;53.60;;;;;;5032492;28;20411;-88
2022/06/05 13:56:19;;;;;;;6.23;5.50;;;25.90;53.60;;;;;;5031190;28;20391;-87